sensor_id;sensor_type;location;lat;lon;timestamp;P1;durP1;ratioP1;P2;durP2;ratioP2
2868;SDS011;1442;47.448;8.582;2023-07-16T00:01:52;1.85;;;1.10;;
2868;SDS011;1442;47.448;8.582;2023-07-16T00:04:19;1.10;;;1.00;;
2868;SDS011;1442;47.448;8.582;2023-07-16T00:06:46;3.78;;;1.90;;
2868;SDS011;1442;47.448;8.582;2023-07-16T00:09:13;1.92;;;1.10;;
2868;SDS011;1442;47.448;8.582;2023-07-16T00:11:41;3.85;;;1.27;;
2868;SDS011;1442;47.448;8.582;2023-07-16T00:14:09;1.85;;;1.10;;
2868;SDS011;1442;47.448;8.582;2023-07-16T00:16:37;1.17;;;1.08;;
2868;SDS011;1442;47.448;8.582;2023-07-16T00:19:05;1.40;;;1.23;;
2868;SDS011;1442;47.448;8.582;2023-07-16T00:21:32;1.70;;;1.10;;
2868;SDS011;1442;47.448;8.582;2023-07-16T00:23:59;1.75;;;1.23;;
2868;SDS011;1442;47.448;8.582;2023-07-16T00:26:26;1.83;;;1.17;;
2868;SDS011;1442;47.448;8.582;2023-07-16T00:28:53;1.45;;;1.10;;
2868;SDS011;1442;47.448;8.582;2023-07-16T00:31:20;2.25;;;0.90;;
2868;SDS011;1442;47.448;8.582;2023-07-16T00:33:49;2.58;;;1.10;;
2868;SDS011;1442;47.448;8.582;2023-07-16T00:36:16;2.65;;;1.40;;
2868;SDS011;1442;47.448;8.582;2023-07-16T00:38:43;2.00;;;1.13;;
2868;SDS011;1442;47.448;8.582;2023-07-16T00:41:12;1.33;;;1.13;;
2868;SDS011;1442;47.448;8.582;2023-07-16T00:43:39;1.58;;;1.10;;
2868;SDS011;1442;47.448;8.582;2023-07-16T00:46:06;4.43;;;1.30;;
2868;SDS011;1442;47.448;8.582;2023-07-16T00:48:34;1.63;;;1.30;;
2868;SDS011;1442;47.448;8.582;2023-07-16T00:51:02;4.35;;;1.27;;
2868;SDS011;1442;47.448;8.582;2023-07-16T00:53:30;1.98;;;1.13;;
2868;SDS011;1442;47.448;8.582;2023-07-16T00:55:57;2.72;;;1.40;;
2868;SDS011;1442;47.448;8.582;2023-07-16T00:58:24;2.53;;;1.48;;
2868;SDS011;1442;47.448;8.582;2023-07-16T01:00:51;6.10;;;1.17;;
2868;SDS011;1442;47.448;8.582;2023-07-16T01:03:19;2.30;;;1.13;;
2868;SDS011;1442;47.448;8.582;2023-07-16T01:05:47;3.85;;;1.08;;
2868;SDS011;1442;47.448;8.582;2023-07-16T01:08:18;1.52;;;1.23;;
2868;SDS011;1442;47.448;8.582;2023-07-16T01:10:47;1.67;;;1.00;;
2868;SDS011;1442;47.448;8.582;2023-07-16T01:13:15;1.30;;;1.02;;
2868;SDS011;1442;47.448;8.582;2023-07-16T01:15:42;1.52;;;1.30;;
2868;SDS011;1442;47.448;8.582;2023-07-16T01:18:09;1.65;;;1.20;;
2868;SDS011;1442;47.448;8.582;2023-07-16T01:20:36;1.25;;;1.05;;
2868;SDS011;1442;47.448;8.582;2023-07-16T01:25:55;1.13;;;1.02;;
2868;SDS011;1442;47.448;8.582;2023-07-16T01:28:39;2.05;;;1.30;;
2868;SDS011;1442;47.448;8.582;2023-07-16T01:31:10;2.15;;;1.48;;
2868;SDS011;1442;47.448;8.582;2023-07-16T01:33:37;2.00;;;1.73;;
2868;SDS011;1442;47.448;8.582;2023-07-16T01:36:05;2.97;;;1.20;;
2868;SDS011;1442;47.448;8.582;2023-07-16T01:38:33;2.83;;;1.40;;
2868;SDS011;1442;47.448;8.582;2023-07-16T01:41:01;3.97;;;1.42;;
2868;SDS011;1442;47.448;8.582;2023-07-16T01:43:28;1.70;;;1.48;;
2868;SDS011;1442;47.448;8.582;2023-07-16T01:45:55;2.90;;;1.58;;
2868;SDS011;1442;47.448;8.582;2023-07-16T01:48:27;4.18;;;1.50;;
2868;SDS011;1442;47.448;8.582;2023-07-16T01:50:56;3.28;;;1.50;;
2868;SDS011;1442;47.448;8.582;2023-07-16T01:53:23;2.15;;;1.33;;
2868;SDS011;1442;47.448;8.582;2023-07-16T01:55:50;6.47;;;1.40;;
2868;SDS011;1442;47.448;8.582;2023-07-16T01:58:17;1.88;;;1.27;;
2868;SDS011;1442;47.448;8.582;2023-07-16T02:00:44;7.28;;;1.92;;
2868;SDS011;1442;47.448;8.582;2023-07-16T02:03:13;1.48;;;1.10;;
2868;SDS011;1442;47.448;8.582;2023-07-16T02:05:41;2.92;;;1.33;;
2868;SDS011;1442;47.448;8.582;2023-07-16T02:08:08;3.92;;;1.27;;
2868;SDS011;1442;47.448;8.582;2023-07-16T02:10:36;2.33;;;1.23;;
2868;SDS011;1442;47.448;8.582;2023-07-16T02:13:03;1.52;;;1.25;;
2868;SDS011;1442;47.448;8.582;2023-07-16T02:15:30;4.93;;;1.58;;
2868;SDS011;1442;47.448;8.582;2023-07-16T02:17:57;1.67;;;1.10;;
2868;SDS011;1442;47.448;8.582;2023-07-16T02:20:24;2.22;;;1.30;;
2868;SDS011;1442;47.448;8.582;2023-07-16T02:22:53;2.70;;;1.25;;
2868;SDS011;1442;47.448;8.582;2023-07-16T02:25:20;4.97;;;1.70;;
2868;SDS011;1442;47.448;8.582;2023-07-16T02:27:47;4.75;;;1.52;;
2868;SDS011;1442;47.448;8.582;2023-07-16T02:30:14;1.88;;;1.45;;
2868;SDS011;1442;47.448;8.582;2023-07-16T02:32:41;2.35;;;1.50;;
2868;SDS011;1442;47.448;8.582;2023-07-16T02:35:09;3.58;;;1.42;;
2868;SDS011;1442;47.448;8.582;2023-07-16T02:37:36;3.78;;;1.35;;
2868;SDS011;1442;47.448;8.582;2023-07-16T02:40:05;3.05;;;1.52;;
2868;SDS011;1442;47.448;8.582;2023-07-16T02:42:33;2.40;;;1.40;;
2868;SDS011;1442;47.448;8.582;2023-07-16T02:45:00;3.00;;;1.73;;
2868;SDS011;1442;47.448;8.582;2023-07-16T02:47:27;3.95;;;1.60;;
2868;SDS011;1442;47.448;8.582;2023-07-16T02:49:54;1.98;;;1.55;;
2868;SDS011;1442;47.448;8.582;2023-07-16T02:52:21;2.88;;;1.50;;
2868;SDS011;1442;47.448;8.582;2023-07-16T02:54:48;2.97;;;1.55;;
2868;SDS011;1442;47.448;8.582;2023-07-16T02:57:17;4.43;;;1.70;;
2868;SDS011;1442;47.448;8.582;2023-07-16T02:59:44;2.08;;;1.45;;
2868;SDS011;1442;47.448;8.582;2023-07-16T03:02:11;2.75;;;1.35;;
2868;SDS011;1442;47.448;8.582;2023-07-16T03:04:38;2.75;;;1.40;;
2868;SDS011;1442;47.448;8.582;2023-07-16T03:07:06;4.97;;;1.50;;
2868;SDS011;1442;47.448;8.582;2023-07-16T03:09:33;4.22;;;1.30;;
2868;SDS011;1442;47.448;8.582;2023-07-16T03:12:01;3.85;;;1.58;;
2868;SDS011;1442;47.448;8.582;2023-07-16T03:14:29;3.90;;;1.90;;
2868;SDS011;1442;47.448;8.582;2023-07-16T03:16:56;3.22;;;1.38;;
2868;SDS011;1442;47.448;8.582;2023-07-16T03:19:23;3.63;;;1.58;;
2868;SDS011;1442;47.448;8.582;2023-07-16T03:21:50;4.38;;;1.60;;
2868;SDS011;1442;47.448;8.582;2023-07-16T03:24:17;4.00;;;1.60;;
2868;SDS011;1442;47.448;8.582;2023-07-16T03:26:44;1.58;;;1.23;;
2868;SDS011;1442;47.448;8.582;2023-07-16T03:29:12;2.88;;;1.60;;
2868;SDS011;1442;47.448;8.582;2023-07-16T03:31:40;1.92;;;1.55;;
2868;SDS011;1442;47.448;8.582;2023-07-16T03:34:07;3.92;;;1.65;;
2868;SDS011;1442;47.448;8.582;2023-07-16T03:36:34;4.50;;;1.80;;
2868;SDS011;1442;47.448;8.582;2023-07-16T03:39:02;1.98;;;1.50;;
2868;SDS011;1442;47.448;8.582;2023-07-16T03:41:29;3.60;;;1.55;;
2868;SDS011;1442;47.448;8.582;2023-07-16T03:43:56;5.05;;;1.40;;
2868;SDS011;1442;47.448;8.582;2023-07-16T03:46:23;2.53;;;1.50;;
2868;SDS011;1442;47.448;8.582;2023-07-16T03:48:52;3.47;;;1.90;;
2868;SDS011;1442;47.448;8.582;2023-07-16T03:51:20;2.88;;;1.30;;
2868;SDS011;1442;47.448;8.582;2023-07-16T03:53:47;2.45;;;1.50;;
2868;SDS011;1442;47.448;8.582;2023-07-16T03:56:14;2.55;;;1.65;;
2868;SDS011;1442;47.448;8.582;2023-07-16T03:58:41;2.63;;;1.77;;
2868;SDS011;1442;47.448;8.582;2023-07-16T04:01:08;2.00;;;1.70;;
2868;SDS011;1442;47.448;8.582;2023-07-16T04:03:35;7.35;;;2.05;;
2868;SDS011;1442;47.448;8.582;2023-07-16T04:06:04;3.35;;;1.65;;
2868;SDS011;1442;47.448;8.582;2023-07-16T04:08:34;5.65;;;2.03;;
2868;SDS011;1442;47.448;8.582;2023-07-16T04:11:01;3.28;;;1.83;;
2868;SDS011;1442;47.448;8.582;2023-07-16T04:13:28;3.95;;;1.63;;
2868;SDS011;1442;47.448;8.582;2023-07-16T04:15:55;3.30;;;1.92;;
2868;SDS011;1442;47.448;8.582;2023-07-16T04:18:23;7.00;;;1.50;;
2868;SDS011;1442;47.448;8.582;2023-07-16T04:20:50;3.50;;;1.88;;
2868;SDS011;1442;47.448;8.582;2023-07-16T04:23:19;6.18;;;1.52;;
2868;SDS011;1442;47.448;8.582;2023-07-16T04:25:46;2.78;;;1.70;;
2868;SDS011;1442;47.448;8.582;2023-07-16T04:28:13;2.13;;;1.70;;
2868;SDS011;1442;47.448;8.582;2023-07-16T04:30:40;3.05;;;1.77;;
2868;SDS011;1442;47.448;8.582;2023-07-16T04:33:07;3.42;;;1.58;;
2868;SDS011;1442;47.448;8.582;2023-07-16T04:35:34;3.28;;;2.30;;
2868;SDS011;1442;47.448;8.582;2023-07-16T04:38:02;1.83;;;1.70;;
2868;SDS011;1442;47.448;8.582;2023-07-16T04:40:30;2.50;;;1.80;;
2868;SDS011;1442;47.448;8.582;2023-07-16T04:42:57;1.60;;;1.50;;
2868;SDS011;1442;47.448;8.582;2023-07-16T04:45:24;3.67;;;2.03;;
2868;SDS011;1442;47.448;8.582;2023-07-16T04:47:52;2.42;;;1.70;;
2868;SDS011;1442;47.448;8.582;2023-07-16T04:50:19;2.38;;;1.90;;
2868;SDS011;1442;47.448;8.582;2023-07-16T04:52:46;3.00;;;1.88;;
2868;SDS011;1442;47.448;8.582;2023-07-16T04:55:13;3.03;;;1.73;;
2868;SDS011;1442;47.448;8.582;2023-07-16T04:57:41;2.28;;;1.73;;
2868;SDS011;1442;47.448;8.582;2023-07-16T05:00:09;3.17;;;1.70;;
2868;SDS011;1442;47.448;8.582;2023-07-16T05:02:36;3.80;;;1.90;;
2868;SDS011;1442;47.448;8.582;2023-07-16T05:05:03;4.22;;;1.60;;
2868;SDS011;1442;47.448;8.582;2023-07-16T05:07:31;3.35;;;1.90;;
2868;SDS011;1442;47.448;8.582;2023-07-16T05:09:58;3.92;;;2.40;;
2868;SDS011;1442;47.448;8.582;2023-07-16T05:12:25;4.10;;;2.30;;
2868;SDS011;1442;47.448;8.582;2023-07-16T05:14:53;2.40;;;1.90;;
2868;SDS011;1442;47.448;8.582;2023-07-16T05:17:20;2.65;;;1.63;;
2868;SDS011;1442;47.448;8.582;2023-07-16T05:19:48;8.73;;;2.00;;
2868;SDS011;1442;47.448;8.582;2023-07-16T05:22:15;6.05;;;1.90;;
2868;SDS011;1442;47.448;8.582;2023-07-16T05:24:42;4.07;;;2.10;;
2868;SDS011;1442;47.448;8.582;2023-07-16T05:27:09;2.45;;;1.80;;
2868;SDS011;1442;47.448;8.582;2023-07-16T05:29:36;3.70;;;2.00;;
2868;SDS011;1442;47.448;8.582;2023-07-16T05:32:05;3.70;;;1.50;;
2868;SDS011;1442;47.448;8.582;2023-07-16T05:34:33;3.90;;;1.80;;
2868;SDS011;1442;47.448;8.582;2023-07-16T05:37:00;2.15;;;1.73;;
2868;SDS011;1442;47.448;8.582;2023-07-16T05:39:27;7.90;;;2.13;;
2868;SDS011;1442;47.448;8.582;2023-07-16T05:41:54;3.10;;;1.65;;
2868;SDS011;1442;47.448;8.582;2023-07-16T05:44:21;1.98;;;1.42;;
2868;SDS011;1442;47.448;8.582;2023-07-16T05:46:48;3.45;;;1.42;;
2868;SDS011;1442;47.448;8.582;2023-07-16T05:49:17;1.58;;;1.35;;
2868;SDS011;1442;47.448;8.582;2023-07-16T05:51:44;2.95;;;1.58;;
2868;SDS011;1442;47.448;8.582;2023-07-16T05:54:11;2.47;;;1.42;;
2868;SDS011;1442;47.448;8.582;2023-07-16T05:56:38;3.88;;;1.40;;
2868;SDS011;1442;47.448;8.582;2023-07-16T05:59:06;2.17;;;1.30;;
2868;SDS011;1442;47.448;8.582;2023-07-16T06:01:33;2.33;;;1.73;;
2868;SDS011;1442;47.448;8.582;2023-07-16T06:04:00;2.95;;;1.58;;
2868;SDS011;1442;47.448;8.582;2023-07-16T06:06:29;2.45;;;2.00;;
2868;SDS011;1442;47.448;8.582;2023-07-16T06:08:56;2.53;;;1.38;;
2868;SDS011;1442;47.448;8.582;2023-07-16T06:11:23;1.50;;;1.25;;
2868;SDS011;1442;47.448;8.582;2023-07-16T06:13:52;2.40;;;1.55;;
2868;SDS011;1442;47.448;8.582;2023-07-16T06:16:19;1.80;;;1.17;;
2868;SDS011;1442;47.448;8.582;2023-07-16T06:18:47;2.00;;;1.38;;
2868;SDS011;1442;47.448;8.582;2023-07-16T06:21:14;1.98;;;1.40;;
2868;SDS011;1442;47.448;8.582;2023-07-16T06:23:42;2.05;;;1.27;;
2868;SDS011;1442;47.448;8.582;2023-07-16T06:26:09;1.75;;;1.55;;
2868;SDS011;1442;47.448;8.582;2023-07-16T06:28:36;1.95;;;1.30;;
2868;SDS011;1442;47.448;8.582;2023-07-16T06:31:04;2.17;;;1.85;;
2868;SDS011;1442;47.448;8.582;2023-07-16T06:33:31;2.35;;;1.73;;
2868;SDS011;1442;47.448;8.582;2023-07-16T06:35:58;3.50;;;1.65;;
2868;SDS011;1442;47.448;8.582;2023-07-16T06:38:25;3.03;;;1.50;;
2868;SDS011;1442;47.448;8.582;2023-07-16T06:40:54;2.10;;;1.65;;
2868;SDS011;1442;47.448;8.582;2023-07-16T06:43:21;3.53;;;1.35;;
2868;SDS011;1442;47.448;8.582;2023-07-16T06:45:49;2.63;;;1.30;;
2868;SDS011;1442;47.448;8.582;2023-07-16T06:48:16;3.03;;;1.63;;
2868;SDS011;1442;47.448;8.582;2023-07-16T06:50:43;2.40;;;1.23;;
2868;SDS011;1442;47.448;8.582;2023-07-16T06:53:10;1.52;;;1.20;;
2868;SDS011;1442;47.448;8.582;2023-07-16T06:55:37;4.75;;;1.38;;
2868;SDS011;1442;47.448;8.582;2023-07-16T06:58:09;2.42;;;1.20;;
2868;SDS011;1442;47.448;8.582;2023-07-16T07:00:37;1.80;;;1.40;;
2868;SDS011;1442;47.448;8.582;2023-07-16T07:03:04;2.72;;;1.30;;
2868;SDS011;1442;47.448;8.582;2023-07-16T07:05:31;2.70;;;1.08;;
2868;SDS011;1442;47.448;8.582;2023-07-16T07:08:01;2.88;;;1.02;;
2868;SDS011;1442;47.448;8.582;2023-07-16T07:10:28;3.30;;;1.63;;
2868;SDS011;1442;47.448;8.582;2023-07-16T07:12:55;5.60;;;1.05;;
2868;SDS011;1442;47.448;8.582;2023-07-16T07:15:23;3.15;;;1.33;;
2868;SDS011;1442;47.448;8.582;2023-07-16T07:17:50;2.65;;;1.60;;
2868;SDS011;1442;47.448;8.582;2023-07-16T07:20:17;3.38;;;1.55;;
2868;SDS011;1442;47.448;8.582;2023-07-16T07:22:45;6.43;;;1.60;;
2868;SDS011;1442;47.448;8.582;2023-07-16T07:25:12;3.22;;;1.40;;
2868;SDS011;1442;47.448;8.582;2023-07-16T07:27:39;1.80;;;1.63;;
2868;SDS011;1442;47.448;8.582;2023-07-16T07:30:06;2.63;;;1.40;;
2868;SDS011;1442;47.448;8.582;2023-07-16T07:32:36;2.40;;;1.50;;
2868;SDS011;1442;47.448;8.582;2023-07-16T07:35:03;4.05;;;1.30;;
2868;SDS011;1442;47.448;8.582;2023-07-16T07:37:31;6.20;;;1.70;;
2868;SDS011;1442;47.448;8.582;2023-07-16T07:39:58;2.72;;;1.38;;
2868;SDS011;1442;47.448;8.582;2023-07-16T07:42:26;5.80;;;1.90;;
2868;SDS011;1442;47.448;8.582;2023-07-16T07:44:53;2.22;;;1.33;;
2868;SDS011;1442;47.448;8.582;2023-07-16T07:47:20;5.78;;;1.60;;
2868;SDS011;1442;47.448;8.582;2023-07-16T07:49:49;4.78;;;1.60;;
2868;SDS011;1442;47.448;8.582;2023-07-16T07:52:16;3.80;;;1.42;;
2868;SDS011;1442;47.448;8.582;2023-07-16T07:54:43;3.08;;;1.52;;
2868;SDS011;1442;47.448;8.582;2023-07-16T07:57:10;3.75;;;1.90;;
2868;SDS011;1442;47.448;8.582;2023-07-16T07:59:37;5.55;;;1.48;;
2868;SDS011;1442;47.448;8.582;2023-07-16T08:02:04;4.10;;;1.58;;
2868;SDS011;1442;47.448;8.582;2023-07-16T08:04:32;3.65;;;1.70;;
2868;SDS011;1442;47.448;8.582;2023-07-16T08:07:00;2.38;;;1.58;;
2868;SDS011;1442;47.448;8.582;2023-07-16T08:09:27;3.10;;;1.50;;
2868;SDS011;1442;47.448;8.582;2023-07-16T08:11:55;4.20;;;1.80;;
2868;SDS011;1442;47.448;8.582;2023-07-16T08:14:22;5.63;;;2.03;;
2868;SDS011;1442;47.448;8.582;2023-07-16T08:16:49;8.95;;;1.50;;
2868;SDS011;1442;47.448;8.582;2023-07-16T08:19:16;4.28;;;1.30;;
2868;SDS011;1442;47.448;8.582;2023-07-16T08:21:43;2.15;;;1.17;;
2868;SDS011;1442;47.448;8.582;2023-07-16T08:24:12;2.97;;;1.70;;
2868;SDS011;1442;47.448;8.582;2023-07-16T08:26:39;8.10;;;1.73;;
2868;SDS011;1442;47.448;8.582;2023-07-16T08:29:06;3.40;;;1.77;;
2868;SDS011;1442;47.448;8.582;2023-07-16T08:31:33;3.83;;;1.58;;
2868;SDS011;1442;47.448;8.582;2023-07-16T08:34:00;2.22;;;1.30;;
2868;SDS011;1442;47.448;8.582;2023-07-16T08:36:27;6.43;;;1.30;;
2868;SDS011;1442;47.448;8.582;2023-07-16T08:38:54;7.35;;;1.80;;
2868;SDS011;1442;47.448;8.582;2023-07-16T08:41:23;1.83;;;1.60;;
2868;SDS011;1442;47.448;8.582;2023-07-16T08:43:50;1.90;;;1.63;;
2868;SDS011;1442;47.448;8.582;2023-07-16T08:46:18;6.40;;;1.42;;
2868;SDS011;1442;47.448;8.582;2023-07-16T08:48:45;4.97;;;1.80;;
2868;SDS011;1442;47.448;8.582;2023-07-16T08:51:13;6.28;;;1.83;;
2868;SDS011;1442;47.448;8.582;2023-07-16T08:53:40;6.47;;;1.50;;
2868;SDS011;1442;47.448;8.582;2023-07-16T08:56:08;4.53;;;1.70;;
2868;SDS011;1442;47.448;8.582;2023-07-16T08:58:36;3.83;;;1.50;;
2868;SDS011;1442;47.448;8.582;2023-07-16T09:01:04;6.50;;;2.10;;
2868;SDS011;1442;47.448;8.582;2023-07-16T09:03:32;3.30;;;1.83;;
2868;SDS011;1442;47.448;8.582;2023-07-16T09:05:59;4.93;;;1.92;;
2868;SDS011;1442;47.448;8.582;2023-07-16T09:08:26;3.55;;;1.65;;
2868;SDS011;1442;47.448;8.582;2023-07-16T09:10:54;4.38;;;1.95;;
2868;SDS011;1442;47.448;8.582;2023-07-16T09:13:22;4.15;;;1.58;;
2868;SDS011;1442;47.448;8.582;2023-07-16T09:15:53;3.20;;;1.40;;
2868;SDS011;1442;47.448;8.582;2023-07-16T09:18:20;5.32;;;1.77;;
2868;SDS011;1442;47.448;8.582;2023-07-16T09:20:48;4.90;;;1.98;;
2868;SDS011;1442;47.448;8.582;2023-07-16T09:23:16;4.18;;;1.70;;
2868;SDS011;1442;47.448;8.582;2023-07-16T09:25:44;7.18;;;2.33;;
2868;SDS011;1442;47.448;8.582;2023-07-16T09:28:11;6.28;;;1.75;;
2868;SDS011;1442;47.448;8.582;2023-07-16T09:30:38;2.92;;;1.60;;
2868;SDS011;1442;47.448;8.582;2023-07-16T09:33:10;6.70;;;1.80;;
2868;SDS011;1442;47.448;8.582;2023-07-16T09:35:38;3.78;;;2.00;;
2868;SDS011;1442;47.448;8.582;2023-07-16T09:38:05;3.03;;;1.52;;
2868;SDS011;1442;47.448;8.582;2023-07-16T09:40:34;4.30;;;1.75;;
2868;SDS011;1442;47.448;8.582;2023-07-16T09:43:01;5.20;;;2.03;;
2868;SDS011;1442;47.448;8.582;2023-07-16T09:45:29;3.20;;;1.90;;
2868;SDS011;1442;47.448;8.582;2023-07-16T09:47:56;7.07;;;2.10;;
2868;SDS011;1442;47.448;8.582;2023-07-16T09:50:24;5.00;;;1.80;;
2868;SDS011;1442;47.448;8.582;2023-07-16T09:52:54;3.75;;;1.60;;
2868;SDS011;1442;47.448;8.582;2023-07-16T09:55:22;5.90;;;2.03;;
2868;SDS011;1442;47.448;8.582;2023-07-16T09:57:50;2.95;;;1.55;;
2868;SDS011;1442;47.448;8.582;2023-07-16T10:00:19;3.92;;;1.40;;
2868;SDS011;1442;47.448;8.582;2023-07-16T10:02:46;6.07;;;1.77;;
2868;SDS011;1442;47.448;8.582;2023-07-16T10:05:14;8.05;;;1.88;;
2868;SDS011;1442;47.448;8.582;2023-07-16T10:07:43;3.33;;;1.55;;
2868;SDS011;1442;47.448;8.582;2023-07-16T10:10:10;3.88;;;1.77;;
2868;SDS011;1442;47.448;8.582;2023-07-16T10:12:37;6.05;;;1.70;;
2868;SDS011;1442;47.448;8.582;2023-07-16T10:15:05;7.03;;;2.70;;
2868;SDS011;1442;47.448;8.582;2023-07-16T10:17:32;4.13;;;1.50;;
2868;SDS011;1442;47.448;8.582;2023-07-16T10:20:00;7.40;;;1.80;;
2868;SDS011;1442;47.448;8.582;2023-07-16T10:22:36;4.15;;;1.65;;
2868;SDS011;1442;47.448;8.582;2023-07-16T10:25:07;4.25;;;1.80;;
2868;SDS011;1442;47.448;8.582;2023-07-16T10:27:35;5.82;;;1.73;;
2868;SDS011;1442;47.448;8.582;2023-07-16T10:30:03;5.05;;;1.60;;
2868;SDS011;1442;47.448;8.582;2023-07-16T10:32:31;4.22;;;1.67;;
2868;SDS011;1442;47.448;8.582;2023-07-16T10:34:58;5.07;;;2.03;;
2868;SDS011;1442;47.448;8.582;2023-07-16T10:37:25;4.47;;;1.67;;
2868;SDS011;1442;47.448;8.582;2023-07-16T10:39:53;8.02;;;1.92;;
2868;SDS011;1442;47.448;8.582;2023-07-16T10:42:22;3.45;;;1.95;;
2868;SDS011;1442;47.448;8.582;2023-07-16T10:44:50;4.13;;;2.03;;
2868;SDS011;1442;47.448;8.582;2023-07-16T10:47:18;5.72;;;1.60;;
2868;SDS011;1442;47.448;8.582;2023-07-16T10:49:48;6.88;;;1.98;;
2868;SDS011;1442;47.448;8.582;2023-07-16T10:52:17;4.43;;;1.95;;
2868;SDS011;1442;47.448;8.582;2023-07-16T10:54:44;4.30;;;1.48;;
2868;SDS011;1442;47.448;8.582;2023-07-16T10:57:11;2.40;;;1.23;;
2868;SDS011;1442;47.448;8.582;2023-07-16T10:59:40;2.58;;;1.52;;
2868;SDS011;1442;47.448;8.582;2023-07-16T11:02:10;2.10;;;1.40;;
2868;SDS011;1442;47.448;8.582;2023-07-16T11:04:37;8.80;;;2.08;;
2868;SDS011;1442;47.448;8.582;2023-07-16T11:07:06;2.03;;;1.17;;
2868;SDS011;1442;47.448;8.582;2023-07-16T11:09:33;4.90;;;2.15;;
2868;SDS011;1442;47.448;8.582;2023-07-16T11:12:06;2.85;;;1.77;;
2868;SDS011;1442;47.448;8.582;2023-07-16T11:14:34;4.75;;;1.80;;
2868;SDS011;1442;47.448;8.582;2023-07-16T11:17:06;3.40;;;1.75;;
2868;SDS011;1442;47.448;8.582;2023-07-16T11:19:33;4.55;;;1.70;;
2868;SDS011;1442;47.448;8.582;2023-07-16T11:22:01;2.97;;;1.75;;
2868;SDS011;1442;47.448;8.582;2023-07-16T11:24:29;7.85;;;2.10;;
2868;SDS011;1442;47.448;8.582;2023-07-16T11:27:02;2.85;;;1.80;;
2868;SDS011;1442;47.448;8.582;2023-07-16T11:29:33;4.88;;;2.00;;
2868;SDS011;1442;47.448;8.582;2023-07-16T11:32:01;3.53;;;1.58;;
2868;SDS011;1442;47.448;8.582;2023-07-16T11:34:29;3.97;;;2.13;;
2868;SDS011;1442;47.448;8.582;2023-07-16T11:37:06;5.78;;;1.80;;
2868;SDS011;1442;47.448;8.582;2023-07-16T11:39:34;3.38;;;1.60;;
2868;SDS011;1442;47.448;8.582;2023-07-16T11:42:01;2.78;;;1.63;;
2868;SDS011;1442;47.448;8.582;2023-07-16T11:44:32;4.95;;;2.40;;
2868;SDS011;1442;47.448;8.582;2023-07-16T11:46:59;5.65;;;2.13;;
2868;SDS011;1442;47.448;8.582;2023-07-16T11:49:26;5.95;;;2.35;;
2868;SDS011;1442;47.448;8.582;2023-07-16T11:51:55;6.30;;;1.67;;
2868;SDS011;1442;47.448;8.582;2023-07-16T11:54:23;2.22;;;1.50;;
2868;SDS011;1442;47.448;8.582;2023-07-16T11:56:50;4.82;;;1.50;;
2868;SDS011;1442;47.448;8.582;2023-07-16T11:59:17;1.92;;;1.60;;
2868;SDS011;1442;47.448;8.582;2023-07-16T12:01:46;2.97;;;1.75;;
2868;SDS011;1442;47.448;8.582;2023-07-16T12:04:13;3.67;;;1.90;;
2868;SDS011;1442;47.448;8.582;2023-07-16T12:06:40;7.75;;;2.10;;
2868;SDS011;1442;47.448;8.582;2023-07-16T12:09:09;4.63;;;1.40;;
2868;SDS011;1442;47.448;8.582;2023-07-16T12:11:36;3.70;;;1.90;;
2868;SDS011;1442;47.448;8.582;2023-07-16T12:14:04;3.00;;;1.95;;
2868;SDS011;1442;47.448;8.582;2023-07-16T12:16:31;3.92;;;1.80;;
2868;SDS011;1442;47.448;8.582;2023-07-16T12:18:58;5.22;;;2.60;;
2868;SDS011;1442;47.448;8.582;2023-07-16T12:21:25;2.78;;;2.10;;
2868;SDS011;1442;47.448;8.582;2023-07-16T12:23:52;2.45;;;1.55;;
2868;SDS011;1442;47.448;8.582;2023-07-16T12:26:21;3.30;;;1.88;;
2868;SDS011;1442;47.448;8.582;2023-07-16T12:28:48;6.03;;;2.28;;
2868;SDS011;1442;47.448;8.582;2023-07-16T12:31:15;7.47;;;2.35;;
2868;SDS011;1442;47.448;8.582;2023-07-16T12:33:43;3.15;;;1.88;;
2868;SDS011;1442;47.448;8.582;2023-07-16T12:36:10;3.25;;;1.92;;
2868;SDS011;1442;47.448;8.582;2023-07-16T12:38:37;3.15;;;1.90;;
2868;SDS011;1442;47.448;8.582;2023-07-16T12:41:04;4.53;;;1.65;;
2868;SDS011;1442;47.448;8.582;2023-07-16T12:43:33;5.18;;;2.35;;
2868;SDS011;1442;47.448;8.582;2023-07-16T12:46:00;5.57;;;2.10;;
2868;SDS011;1442;47.448;8.582;2023-07-16T12:48:28;6.70;;;2.20;;
2868;SDS011;1442;47.448;8.582;2023-07-16T12:50:56;4.50;;;2.10;;
2868;SDS011;1442;47.448;8.582;2023-07-16T12:53:23;10.23;;;2.28;;
2868;SDS011;1442;47.448;8.582;2023-07-16T12:55:50;6.45;;;2.05;;
2868;SDS011;1442;47.448;8.582;2023-07-16T12:58:17;5.13;;;2.28;;
2868;SDS011;1442;47.448;8.582;2023-07-16T13:00:45;3.80;;;1.83;;
2868;SDS011;1442;47.448;8.582;2023-07-16T13:03:13;6.93;;;2.13;;
2868;SDS011;1442;47.448;8.582;2023-07-16T13:05:41;7.97;;;2.67;;
2868;SDS011;1442;47.448;8.582;2023-07-16T13:08:10;9.10;;;1.92;;
2868;SDS011;1442;47.448;8.582;2023-07-16T13:10:37;6.55;;;2.10;;
2868;SDS011;1442;47.448;8.582;2023-07-16T13:13:04;6.13;;;2.28;;
2868;SDS011;1442;47.448;8.582;2023-07-16T13:15:33;6.38;;;2.42;;
2868;SDS011;1442;47.448;8.582;2023-07-16T13:18:01;5.57;;;2.35;;
2868;SDS011;1442;47.448;8.582;2023-07-16T13:20:28;4.88;;;2.45;;
2868;SDS011;1442;47.448;8.582;2023-07-16T13:22:55;3.97;;;1.98;;
2868;SDS011;1442;47.448;8.582;2023-07-16T13:25:23;5.50;;;2.42;;
2868;SDS011;1442;47.448;8.582;2023-07-16T13:27:50;8.40;;;2.78;;
2868;SDS011;1442;47.448;8.582;2023-07-16T13:30:18;4.85;;;2.33;;
2868;SDS011;1442;47.448;8.582;2023-07-16T13:32:45;6.20;;;2.30;;
2868;SDS011;1442;47.448;8.582;2023-07-16T13:35:15;7.32;;;1.98;;
2868;SDS011;1442;47.448;8.582;2023-07-16T13:37:42;4.68;;;2.47;;
2868;SDS011;1442;47.448;8.582;2023-07-16T13:40:11;3.13;;;1.90;;
2868;SDS011;1442;47.448;8.582;2023-07-16T13:42:38;6.90;;;2.40;;
2868;SDS011;1442;47.448;8.582;2023-07-16T13:45:06;6.20;;;2.25;;
2868;SDS011;1442;47.448;8.582;2023-07-16T13:47:33;4.28;;;2.00;;
2868;SDS011;1442;47.448;8.582;2023-07-16T13:50:00;4.43;;;2.10;;
2868;SDS011;1442;47.448;8.582;2023-07-16T13:52:29;6.05;;;2.22;;
2868;SDS011;1442;47.448;8.582;2023-07-16T13:54:56;2.90;;;2.15;;
2868;SDS011;1442;47.448;8.582;2023-07-16T13:57:23;6.75;;;2.10;;
2868;SDS011;1442;47.448;8.582;2023-07-16T13:59:50;4.70;;;2.30;;
2868;SDS011;1442;47.448;8.582;2023-07-16T14:02:17;7.10;;;2.22;;
2868;SDS011;1442;47.448;8.582;2023-07-16T14:04:45;4.15;;;1.80;;
2868;SDS011;1442;47.448;8.582;2023-07-16T14:07:12;9.25;;;2.63;;
2868;SDS011;1442;47.448;8.582;2023-07-16T14:09:41;4.72;;;2.28;;
2868;SDS011;1442;47.448;8.582;2023-07-16T14:12:08;4.93;;;2.42;;
2868;SDS011;1442;47.448;8.582;2023-07-16T14:14:35;3.30;;;2.10;;
2868;SDS011;1442;47.448;8.582;2023-07-16T14:17:02;6.97;;;2.67;;
2868;SDS011;1442;47.448;8.582;2023-07-16T14:19:29;2.03;;;1.80;;
2868;SDS011;1442;47.448;8.582;2023-07-16T14:21:56;6.75;;;2.40;;
2868;SDS011;1442;47.448;8.582;2023-07-16T14:24:23;4.68;;;2.67;;
2868;SDS011;1442;47.448;8.582;2023-07-16T14:26:52;6.25;;;2.63;;
2868;SDS011;1442;47.448;8.582;2023-07-16T14:29:19;4.28;;;2.00;;
2868;SDS011;1442;47.448;8.582;2023-07-16T14:31:46;4.03;;;2.05;;
2868;SDS011;1442;47.448;8.582;2023-07-16T14:34:14;6.63;;;2.30;;
2868;SDS011;1442;47.448;8.582;2023-07-16T14:36:41;4.32;;;2.30;;
2868;SDS011;1442;47.448;8.582;2023-07-16T14:39:08;4.82;;;2.10;;
2868;SDS011;1442;47.448;8.582;2023-07-16T14:41:35;3.65;;;2.05;;
2868;SDS011;1442;47.448;8.582;2023-07-16T14:44:04;4.03;;;1.95;;
2868;SDS011;1442;47.448;8.582;2023-07-16T14:46:31;7.20;;;2.05;;
2868;SDS011;1442;47.448;8.582;2023-07-16T14:48:59;7.28;;;2.47;;
2868;SDS011;1442;47.448;8.582;2023-07-16T14:51:27;7.47;;;2.60;;
2868;SDS011;1442;47.448;8.582;2023-07-16T14:53:54;5.70;;;2.20;;
2868;SDS011;1442;47.448;8.582;2023-07-16T14:56:22;5.45;;;2.35;;
2868;SDS011;1442;47.448;8.582;2023-07-16T14:58:49;6.45;;;2.22;;
2868;SDS011;1442;47.448;8.582;2023-07-16T15:01:17;8.15;;;2.80;;
2868;SDS011;1442;47.448;8.582;2023-07-16T15:03:45;4.93;;;2.65;;
2868;SDS011;1442;47.448;8.582;2023-07-16T15:06:12;3.67;;;2.65;;
2868;SDS011;1442;47.448;8.582;2023-07-16T15:08:39;5.78;;;2.30;;
2868;SDS011;1442;47.448;8.582;2023-07-16T15:11:07;4.88;;;2.33;;
2868;SDS011;1442;47.448;8.582;2023-07-16T15:13:34;5.97;;;3.35;;
2868;SDS011;1442;47.448;8.582;2023-07-16T15:16:01;7.43;;;3.00;;
2868;SDS011;1442;47.448;8.582;2023-07-16T15:18:30;4.50;;;2.25;;
2868;SDS011;1442;47.448;8.582;2023-07-16T15:20:57;6.63;;;2.53;;